Time,TemperatureF,DewpointF,PressureIn,WindDirection,WindDirectionDegrees,WindSpeedMPH,WindSpeedGustMPH,Humidity,HourlyPrecipIn,Conditions,Clouds,dailyrainin,SoftwareType,DateUTC
2013-09-03 00:02:00,62.3,56.3,29.99,North,0,0.0,0.0,81,0.00,,,0.00,WUHU216HW,2013-09-03 07:02:00,
2013-09-03 00:07:00,62.1,56.2,29.98,North,0,0.0,0.0,81,0.00,,,0.00,WUHU216HW,2013-09-03 07:07:00,
2013-09-03 00:12:00,62.1,56.2,29.99,North,0,0.0,0.0,81,0.00,,,0.00,WUHU216HW,2013-09-03 07:12:00,
2013-09-03 00:17:00,62.1,56.2,29.99,North,0,0.0,0.0,81,0.00,,,0.00,WUHU216HW,2013-09-03 07:17:00,
2013-09-03 00:22:00,62.1,56.2,29.98,North,0,0.0,0.0,81,0.00,,,0.00,WUHU216HW,2013-09-03 07:22:00,
2013-09-03 00:27:00,62.1,56.2,29.99,North,0,0.0,0.0,81,0.00,,,0.00,WUHU216HW,2013-09-03 07:27:00,
2013-09-03 00:32:00,62.1,56.2,29.98,North,0,0.0,0.0,81,0.00,,,0.00,WUHU216HW,2013-09-03 07:32:00,
2013-09-03 00:37:00,62.3,56.3,29.98,North,0,0.0,0.0,81,0.00,,,0.00,WUHU216HW,2013-09-03 07:37:00,
2013-09-03 00:42:00,62.3,56.3,29.98,North,0,0.0,0.0,81,0.00,,,0.00,WUHU216HW,2013-09-03 07:42:00,
2013-09-03 00:47:00,62.1,56.5,29.98,North,0,0.0,0.0,82,0.00,,,0.00,WUHU216HW,2013-09-03 07:47:00,
2013-09-03 00:52:00,61.7,56.2,29.98,North,0,0.0,0.0,82,0.00,,,0.00,WUHU216HW,2013-09-03 07:52:00,
2013-09-03 00:57:00,61.6,55.7,29.98,North,0,0.0,0.0,81,0.00,,,0.00,WUHU216HW,2013-09-03 07:57:00,
2013-09-03 01:02:00,61.6,56.1,29.98,North,0,0.0,0.0,82,0.00,,,0.00,WUHU216HW,2013-09-03 08:02:00,
2013-09-03 01:07:00,61.4,55.9,29.99,North,0,0.0,0.0,82,0.00,,,0.00,WUHU216HW,2013-09-03 08:07:00,
2013-09-03 01:12:00,61.6,56.3,29.99,North,0,0.0,0.0,83,0.00,,,0.00,WUHU216HW,2013-09-03 08:12:00,
2013-09-03 01:17:00,61.6,56.7,29.99,North,0,0.0,0.0,84,0.00,,,0.00,WUHU216HW,2013-09-03 08:17:00,
2013-09-03 01:22:00,61.6,56.7,29.99,North,0,0.0,0.0,84,0.00,,,0.00,WUHU216HW,2013-09-03 08:22:00,
2013-09-03 01:27:00,61.6,56.7,29.99,North,0,0.0,0.0,84,0.00,,,0.00,WUHU216HW,2013-09-03 08:27:00,
2013-09-03 01:32:00,61.6,57.1,29.99,North,0,0.0,0.0,85,0.00,,,0.00,WUHU216HW,2013-09-03 08:32:00,
2013-09-03 01:37:00,61.7,57.2,30.00,North,0,0.0,0.0,85,0.00,,,0.00,WUHU216HW,2013-09-03 08:37:00,
2013-09-03 01:42:00,61.7,57.2,29.99,North,0,0.0,0.0,85,0.00,,,0.00,WUHU216HW,2013-09-03 08:42:00,
2013-09-03 01:47:00,61.7,57.2,29.97,North,0,0.0,0.0,85,0.00,,,0.00,WUHU216HW,2013-09-03 08:47:00,
2013-09-03 01:52:00,61.9,57.3,29.98,North,0,0.0,0.0,85,0.00,,,0.00,WUHU216HW,2013-09-03 08:52:00,
2013-09-03 01:57:00,61.9,57.1,29.99,North,0,0.0,0.0,84,0.00,,,0.00,WUHU216HW,2013-09-03 08:57:00,
2013-09-03 02:02:00,61.7,56.9,29.98,North,0,0.0,0.0,84,0.00,,,0.00,WUHU216HW,2013-09-03 09:02:00,
2013-09-03 02:07:00,61.6,57.1,29.98,North,0,0.0,0.0,85,0.00,,,0.00,WUHU216HW,2013-09-03 09:07:00,
2013-09-03 02:12:00,61.6,57.3,29.98,North,0,0.0,0.0,86,0.00,,,0.00,WUHU216HW,2013-09-03 09:12:00,
2013-09-03 02:17:00,61.6,57.1,29.98,North,0,0.0,0.0,85,0.00,,,0.00,WUHU216HW,2013-09-03 09:17:00,
2013-09-03 02:22:00,61.6,57.1,29.98,North,0,0.0,0.0,85,0.01,,,0.01,WUHU216HW,2013-09-03 09:22:00,
2013-09-03 02:26:00,61.4,56.9,29.99,North,0,0.0,0.0,85,0.01,,,0.01,WUHU216HW,2013-09-03 09:26:00,
2013-09-03 02:31:00,61.6,57.1,29.99,North,0,0.0,0.0,85,0.01,,,0.01,WUHU216HW,2013-09-03 09:31:00,
2013-09-03 02:36:00,61.2,57.0,29.98,North,0,0.0,0.0,86,0.01,,,0.01,WUHU216HW,2013-09-03 09:36:00,
2013-09-03 02:41:00,61.2,56.7,29.98,North,0,0.0,0.0,85,0.01,,,0.01,WUHU216HW,2013-09-03 09:41:00,
2013-09-03 02:47:00,61.0,56.9,29.98,North,0,0.0,0.0,86,0.01,,,0.01,WUHU216HW,2013-09-03 09:47:00,
2013-09-03 02:52:00,61.0,57.2,29.99,North,0,0.0,0.0,87,0.01,,,0.01,WUHU216HW,2013-09-03 09:52:00,
2013-09-03 02:57:00,61.0,57.2,29.99,North,0,0.0,0.0,87,0.01,,,0.01,WUHU216HW,2013-09-03 09:57:00,
2013-09-03 03:02:00,61.0,57.2,29.99,North,0,0.0,0.0,87,0.01,,,0.01,WUHU216HW,2013-09-03 10:02:00,
2013-09-03 03:07:00,61.0,57.2,29.98,North,0,0.0,0.0,87,0.01,,,0.01,WUHU216HW,2013-09-03 10:07:00,
2013-09-03 03:12:00,61.0,57.2,30.00,North,0,0.0,0.0,87,0.01,,,0.01,WUHU216HW,2013-09-03 10:12:00,
2013-09-03 03:17:00,61.0,57.5,30.00,North,0,0.0,0.0,88,0.00,,,0.01,WUHU216HW,2013-09-03 10:17:00,
2013-09-03 03:22:00,61.0,57.8,29.99,North,0,0.0,0.0,89,0.00,,,0.01,WUHU216HW,2013-09-03 10:22:00,
2013-09-03 03:27:00,61.0,57.5,29.99,North,0,0.0,0.0,88,0.00,,,0.01,WUHU216HW,2013-09-03 10:27:00,
2013-09-03 03:32:00,61.0,57.8,29.98,North,0,0.0,0.0,89,0.00,,,0.01,WUHU216HW,2013-09-03 10:32:00,
2013-09-03 03:37:00,60.8,57.6,29.98,North,0,0.0,0.0,89,0.00,,,0.01,WUHU216HW,2013-09-03 10:37:00,
2013-09-03 03:42:00,60.8,57.6,29.98,North,0,0.0,0.0,89,0.00,,,0.01,WUHU216HW,2013-09-03 10:42:00,
2013-09-03 03:47:00,60.8,57.6,29.98,North,0,0.0,0.0,89,0.01,,,0.02,WUHU216HW,2013-09-03 10:47:00,
2013-09-03 03:52:00,60.8,57.6,29.98,North,0,0.0,0.0,89,0.01,,,0.02,WUHU216HW,2013-09-03 10:52:00,
2013-09-03 03:57:00,60.8,57.6,29.98,North,0,0.0,0.0,89,0.01,,,0.02,WUHU216HW,2013-09-03 10:57:00,
2013-09-03 04:02:00,60.7,57.4,29.98,North,0,0.0,0.0,89,0.01,,,0.02,WUHU216HW,2013-09-03 11:02:00,
2013-09-03 04:07:00,60.8,57.6,29.99,North,0,0.0,0.0,89,0.01,,,0.02,WUHU216HW,2013-09-03 11:07:00,
2013-09-03 04:13:00,60.8,57.6,29.98,North,0,0.0,0.0,89,0.01,,,0.02,WUHU216HW,2013-09-03 11:13:00,
2013-09-03 04:18:00,60.8,58.0,29.98,North,0,0.0,0.0,90,0.01,,,0.02,WUHU216HW,2013-09-03 11:18:00,
2013-09-03 04:23:00,60.7,57.4,29.98,North,0,0.0,0.0,89,0.01,,,0.02,WUHU216HW,2013-09-03 11:23:00,
2013-09-03 04:28:00,60.8,57.6,29.99,North,0,0.0,0.0,89,0.01,,,0.02,WUHU216HW,2013-09-03 11:28:00,
2013-09-03 04:33:00,60.8,57.6,29.99,North,0,0.0,0.0,89,0.01,,,0.02,WUHU216HW,2013-09-03 11:33:00,
2013-09-03 04:38:00,60.8,58.0,29.98,North,0,0.0,0.0,90,0.01,,,0.02,WUHU216HW,2013-09-03 11:38:00,
2013-09-03 04:43:00,60.8,58.0,29.98,North,0,0.0,0.0,90,0.01,,,0.02,WUHU216HW,2013-09-03 11:43:00,
2013-09-03 04:48:00,60.8,58.0,29.97,North,0,0.0,0.0,90,0.00,,,0.02,WUHU216HW,2013-09-03 11:48:00,
2013-09-03 04:53:00,60.8,58.0,29.97,North,0,0.0,0.0,90,0.00,,,0.02,WUHU216HW,2013-09-03 11:53:00,
2013-09-03 04:58:00,60.7,57.8,29.97,North,0,0.0,0.0,90,0.00,,,0.02,WUHU216HW,2013-09-03 11:58:00,
2013-09-03 05:03:00,60.7,57.8,29.97,North,0,0.0,0.0,90,0.00,,,0.02,WUHU216HW,2013-09-03 12:03:00,
2013-09-03 05:09:00,60.7,57.8,29.98,North,0,0.0,0.0,90,0.00,,,0.02,WUHU216HW,2013-09-03 12:09:00,
2013-09-03 05:14:00,60.7,57.8,29.99,North,0,0.0,0.0,90,0.00,,,0.02,WUHU216HW,2013-09-03 12:14:00,
2013-09-03 05:19:00,60.8,58.0,30.00,North,0,0.0,0.0,90,0.00,,,0.02,WUHU216HW,2013-09-03 12:19:00,
2013-09-03 05:24:00,60.8,58.0,30.00,North,0,0.0,0.0,90,0.00,,,0.02,WUHU216HW,2013-09-03 12:24:00,
2013-09-03 05:29:00,60.8,58.0,29.99,North,0,0.0,0.0,90,0.01,,,0.03,WUHU216HW,2013-09-03 12:29:00,
2013-09-03 05:34:00,60.8,58.0,29.99,North,0,0.0,0.0,90,0.02,,,0.04,WUHU216HW,2013-09-03 12:34:00,
2013-09-03 05:39:00,60.8,58.2,29.98,North,0,0.0,0.0,91,0.03,,,0.05,WUHU216HW,2013-09-03 12:39:00,
2013-09-03 05:44:00,60.8,58.0,29.99,North,0,0.0,0.0,90,0.04,,,0.06,WUHU216HW,2013-09-03 12:44:00,
2013-09-03 05:49:00,60.7,57.8,30.00,North,0,0.0,0.0,90,0.04,,,0.06,WUHU216HW,2013-09-03 12:49:00,
2013-09-03 05:54:00,60.7,57.8,30.01,North,0,0.0,0.0,90,0.04,,,0.06,WUHU216HW,2013-09-03 12:54:00,
2013-09-03 05:59:00,60.7,57.8,30.00,North,0,0.0,0.0,90,0.05,,,0.07,WUHU216HW,2013-09-03 12:59:00,
2013-09-03 06:04:00,60.7,57.8,29.99,North,0,0.0,0.0,90,0.05,,,0.07,WUHU216HW,2013-09-03 13:04:00,
2013-09-03 06:09:00,60.7,57.8,29.99,North,0,0.0,0.0,90,0.06,,,0.08,WUHU216HW,2013-09-03 13:09:00,
2013-09-03 06:14:00,60.7,58.1,30.00,North,0,0.0,0.0,91,0.06,,,0.08,WUHU216HW,2013-09-03 13:14:00,
2013-09-03 06:19:00,60.5,57.6,29.99,North,0,0.0,0.0,90,0.06,,,0.08,WUHU216HW,2013-09-03 13:19:00,
2013-09-03 06:24:00,60.5,57.6,29.99,North,0,0.0,0.0,90,0.05,,,0.08,WUHU216HW,2013-09-03 13:24:00,
2013-09-03 06:29:00,60.5,57.6,29.99,North,0,0.0,0.0,90,0.04,,,0.08,WUHU216HW,2013-09-03 13:29:00,
2013-09-03 06:34:00,60.3,57.4,29.99,North,0,0.0,0.0,90,0.04,,,0.08,WUHU216HW,2013-09-03 13:34:00,
2013-09-03 06:39:00,60.3,57.4,29.99,North,0,0.0,0.0,90,0.03,,,0.08,WUHU216HW,2013-09-03 13:39:00,
2013-09-03 06:44:00,60.3,57.4,29.98,North,0,0.0,0.0,90,0.02,,,0.08,WUHU216HW,2013-09-03 13:44:00,
2013-09-03 06:49:00,60.3,57.7,29.98,North,0,0.0,0.0,91,0.02,,,0.08,WUHU216HW,2013-09-03 13:49:00,
2013-09-03 06:54:00,60.3,57.7,29.98,North,0,0.0,0.0,91,0.01,,,0.08,WUHU216HW,2013-09-03 13:54:00,
2013-09-03 06:59:00,60.3,57.4,29.98,North,0,0.0,0.0,90,0.01,,,0.08,WUHU216HW,2013-09-03 13:59:00,
2013-09-03 07:04:00,60.3,57.4,29.98,North,0,0.0,0.0,90,0.00,,,0.08,WUHU216HW,2013-09-03 14:04:00,
2013-09-03 07:09:00,60.3,57.4,29.99,North,0,0.0,0.0,90,0.00,,,0.08,WUHU216HW,2013-09-03 14:09:00,
2013-09-03 07:14:00,60.5,57.6,30.00,North,0,0.0,0.0,90,0.00,,,0.08,WUHU216HW,2013-09-03 14:14:00,
2013-09-03 07:19:00,60.5,57.9,30.00,North,0,0.0,0.0,91,0.00,,,0.08,WUHU216HW,2013-09-03 14:19:00,
2013-09-03 07:24:00,60.5,57.6,29.99,North,0,0.0,0.0,90,0.00,,,0.08,WUHU216HW,2013-09-03 14:24:00,
2013-09-03 07:29:00,60.7,58.1,30.00,North,0,0.0,0.0,91,0.01,,,0.09,WUHU216HW,2013-09-03 14:29:00,
2013-09-03 07:34:00,60.8,58.0,30.00,North,0,0.0,0.0,90,0.01,,,0.09,WUHU216HW,2013-09-03 14:34:00,
2013-09-03 07:39:00,61.0,58.4,30.00,North,0,0.0,0.0,91,0.01,,,0.09,WUHU216HW,2013-09-03 14:39:00,
2013-09-03 07:44:00,61.2,58.6,30.00,North,0,0.0,0.0,91,0.01,,,0.09,WUHU216HW,2013-09-03 14:44:00,
2013-09-03 07:49:00,61.4,58.8,30.00,North,0,0.0,0.0,91,0.01,,,0.09,WUHU216HW,2013-09-03 14:49:00,
2013-09-03 07:54:00,61.4,58.8,30.00,North,0,0.0,0.0,91,0.01,,,0.09,WUHU216HW,2013-09-03 14:54:00,
2013-09-03 07:59:00,61.6,59.0,30.00,North,0,0.0,0.0,91,0.01,,,0.09,WUHU216HW,2013-09-03 14:59:00,
2013-09-03 08:04:00,61.6,59.0,29.99,North,0,0.0,0.0,91,0.01,,,0.09,WUHU216HW,2013-09-03 15:04:00,
2013-09-03 08:09:00,61.6,59.0,29.99,North,0,0.0,0.0,91,0.01,,,0.09,WUHU216HW,2013-09-03 15:09:00,
2013-09-03 08:14:00,61.7,59.1,29.99,North,0,0.0,0.0,91,0.01,,,0.09,WUHU216HW,2013-09-03 15:14:00,
2013-09-03 08:19:00,61.9,59.3,29.99,North,0,0.0,0.0,91,0.01,,,0.09,WUHU216HW,2013-09-03 15:19:00,
2013-09-03 08:24:00,62.1,59.2,30.00,North,0,0.0,0.0,90,0.00,,,0.09,WUHU216HW,2013-09-03 15:24:00,
2013-09-03 08:29:00,62.1,59.2,30.00,North,0,0.0,0.0,90,0.00,,,0.09,WUHU216HW,2013-09-03 15:29:00,
2013-09-03 08:34:00,62.3,59.4,30.00,North,0,0.0,0.0,90,0.00,,,0.09,WUHU216HW,2013-09-03 15:34:00,
2013-09-03 08:39:00,62.3,59.4,29.99,North,0,0.0,0.0,90,0.00,,,0.09,WUHU216HW,2013-09-03 15:39:00,
2013-09-03 08:44:00,62.3,59.4,30.00,North,0,0.0,0.0,90,0.00,,,0.09,WUHU216HW,2013-09-03 15:44:00,
2013-09-03 08:49:00,62.5,59.6,29.99,North,0,0.0,0.0,90,0.00,,,0.09,WUHU216HW,2013-09-03 15:49:00,
2013-09-03 08:54:00,62.3,59.4,30.00,North,0,0.0,0.0,90,0.00,,,0.09,WUHU216HW,2013-09-03 15:54:00,
2013-09-03 08:59:00,62.3,59.4,30.00,North,0,0.0,0.0,90,0.00,,,0.09,WUHU216HW,2013-09-03 15:59:00,
2013-09-03 09:04:00,62.5,59.6,30.00,North,0,0.0,0.0,90,0.00,,,0.09,WUHU216HW,2013-09-03 16:04:00,
2013-09-03 09:09:00,62.5,59.6,30.00,North,0,0.0,0.0,90,0.01,,,0.10,WUHU216HW,2013-09-03 16:09:00,
2013-09-03 09:14:00,62.6,59.8,30.00,North,0,0.0,0.0,90,0.01,,,0.10,WUHU216HW,2013-09-03 16:14:00,
2013-09-03 09:19:00,63.0,60.1,30.00,North,0,0.0,0.0,90,0.01,,,0.10,WUHU216HW,2013-09-03 16:19:00,
2013-09-03 09:24:00,63.4,60.5,30.00,North,0,0.0,0.0,90,0.01,,,0.10,WUHU216HW,2013-09-03 16:24:00,
2013-09-03 09:29:00,63.9,61.0,30.00,North,0,0.0,0.0,90,0.01,,,0.10,WUHU216HW,2013-09-03 16:29:00,
2013-09-03 09:34:00,64.1,60.8,30.00,North,0,0.0,0.0,89,0.01,,,0.10,WUHU216HW,2013-09-03 16:34:00,
2013-09-03 09:39:00,64.1,60.8,30.01,North,0,0.0,0.0,89,0.01,,,0.10,WUHU216HW,2013-09-03 16:39:00,
2013-09-03 09:44:00,64.6,61.4,30.01,North,0,0.0,0.0,89,0.01,,,0.10,WUHU216HW,2013-09-03 16:44:00,
2013-09-03 09:49:00,65.0,61.0,30.01,North,0,0.0,0.0,87,0.01,,,0.10,WUHU216HW,2013-09-03 16:49:00,
2013-09-03 09:54:00,65.2,61.2,30.01,North,0,0.0,0.0,87,0.01,,,0.10,WUHU216HW,2013-09-03 16:54:00,
2013-09-03 09:59:00,65.5,61.6,30.01,North,0,0.0,0.0,87,0.01,,,0.10,WUHU216HW,2013-09-03 16:59:00,
2013-09-03 10:04:00,65.7,61.8,30.01,North,0,0.0,0.0,87,0.01,,,0.10,WUHU216HW,2013-09-03 17:04:00,
2013-09-03 10:09:00,65.7,61.4,30.01,North,0,0.0,0.0,86,0.00,,,0.10,WUHU216HW,2013-09-03 17:09:00,
2013-09-03 10:14:00,65.7,61.4,30.01,North,0,0.0,0.0,86,0.00,,,0.10,WUHU216HW,2013-09-03 17:14:00,
2013-09-03 10:19:00,65.9,61.6,30.01,North,0,0.0,0.0,86,0.00,,,0.10,WUHU216HW,2013-09-03 17:19:00,
2013-09-03 10:24:00,66.1,61.8,30.01,North,0,0.0,0.0,86,0.00,,,0.10,WUHU216HW,2013-09-03 17:24:00,
2013-09-03 10:29:00,66.1,61.8,30.01,North,0,0.0,0.0,86,0.00,,,0.10,WUHU216HW,2013-09-03 17:29:00,
2013-09-03 10:34:00,66.1,61.8,30.01,North,0,0.0,0.0,86,0.00,,,0.10,WUHU216HW,2013-09-03 17:34:00,
2013-09-03 10:39:00,66.4,62.1,30.01,North,0,0.0,0.0,86,0.00,,,0.10,WUHU216HW,2013-09-03 17:39:00,
2013-09-03 10:44:00,66.6,61.9,30.01,North,0,0.0,0.0,85,0.00,,,0.10,WUHU216HW,2013-09-03 17:44:00,
2013-09-03 10:49:00,66.8,62.1,30.01,North,0,0.0,0.0,85,0.00,,,0.10,WUHU216HW,2013-09-03 17:49:00,
2013-09-03 10:54:00,67.3,62.3,30.01,North,0,0.0,0.0,84,0.00,,,0.10,WUHU216HW,2013-09-03 17:54:00,
2013-09-03 10:59:00,67.3,62.3,30.01,North,0,0.0,0.0,84,0.00,,,0.10,WUHU216HW,2013-09-03 17:59:00,
2013-09-03 11:04:00,67.1,62.1,30.02,North,0,0.0,0.0,84,0.00,,,0.10,WUHU216HW,2013-09-03 18:04:00,
2013-09-03 11:09:00,67.0,61.9,30.02,North,0,0.0,0.0,84,0.00,,,0.10,WUHU216HW,2013-09-03 18:09:00,
2013-09-03 11:14:00,66.6,61.6,30.02,North,0,0.0,0.0,84,0.00,,,0.10,WUHU216HW,2013-09-03 18:14:00,
2013-09-03 11:19:00,66.2,61.2,30.02,North,0,0.0,0.0,84,0.00,,,0.10,WUHU216HW,2013-09-03 18:19:00,
2013-09-03 11:24:00,65.9,61.2,30.01,North,0,0.0,0.0,85,0.00,,,0.10,WUHU216HW,2013-09-03 18:24:00,
2013-09-03 11:29:00,65.7,61.0,30.01,North,0,0.0,0.0,85,0.00,,,0.10,WUHU216HW,2013-09-03 18:29:00,
2013-09-03 11:34:00,65.5,61.2,30.02,North,0,0.0,0.0,86,0.00,,,0.10,WUHU216HW,2013-09-03 18:34:00,
2013-09-03 11:39:00,65.2,60.8,30.02,North,0,0.0,0.0,86,0.00,,,0.10,WUHU216HW,2013-09-03 18:39:00,
2013-09-03 11:44:00,64.8,60.8,30.01,North,0,0.0,0.0,87,0.00,,,0.10,WUHU216HW,2013-09-03 18:44:00,
2013-09-03 11:49:00,64.4,60.6,30.02,North,0,0.0,0.0,87,0.00,,,0.10,WUHU216HW,2013-09-03 18:49:00,
2013-09-03 11:54:00,64.4,60.6,30.02,North,0,0.0,0.0,87,0.00,,,0.10,WUHU216HW,2013-09-03 18:54:00,
2013-09-03 11:59:00,64.4,60.6,30.03,North,0,0.0,0.0,87,0.00,,,0.10,WUHU216HW,2013-09-03 18:59:00,
2013-09-03 12:05:00,64.4,60.6,30.03,North,0,0.0,0.0,87,0.00,,,0.10,WUHU216HW,2013-09-03 19:05:00,
2013-09-03 12:10:00,64.4,60.6,30.03,North,0,0.0,0.0,87,0.01,,,0.11,WUHU216HW,2013-09-03 19:10:00,
2013-09-03 12:15:00,64.6,60.7,30.03,North,0,0.0,0.0,87,0.01,,,0.11,WUHU216HW,2013-09-03 19:15:00,
2013-09-03 12:19:00,64.4,60.6,30.03,North,0,0.0,0.0,87,0.02,,,0.12,WUHU216HW,2013-09-03 19:19:00,
2013-09-03 12:25:00,64.6,61.0,30.03,North,0,0.0,0.0,88,0.03,,,0.13,WUHU216HW,2013-09-03 19:25:00,
2013-09-03 12:29:00,64.8,61.2,30.03,North,0,0.0,0.0,88,0.03,,,0.13,WUHU216HW,2013-09-03 19:29:00,
2013-09-03 12:34:00,65.0,61.4,30.03,North,0,0.0,0.0,88,0.04,,,0.14,WUHU216HW,2013-09-03 19:34:00,
2013-09-03 12:39:00,65.2,61.6,30.03,North,0,0.0,0.0,88,0.04,,,0.14,WUHU216HW,2013-09-03 19:39:00,
2013-09-03 12:44:00,65.2,61.8,30.03,North,0,0.0,0.0,89,0.04,,,0.14,WUHU216HW,2013-09-03 19:44:00,
2013-09-03 12:49:00,65.3,61.8,30.02,North,0,0.0,0.0,88,0.04,,,0.14,WUHU216HW,2013-09-03 19:49:00,
2013-09-03 12:54:00,65.3,61.8,30.02,North,0,0.0,0.0,88,0.04,,,0.14,WUHU216HW,2013-09-03 19:54:00,
2013-09-03 12:59:00,65.5,61.8,30.02,North,0,0.0,0.0,88,0.04,,,0.14,WUHU216HW,2013-09-03 19:59:00,
2013-09-03 13:04:00,65.5,61.8,30.01,North,0,0.0,0.0,88,0.03,,,0.14,WUHU216HW,2013-09-03 20:04:00,
2013-09-03 13:09:00,66.1,62.4,30.01,North,0,0.0,0.0,88,0.03,,,0.14,WUHU216HW,2013-09-03 20:09:00,
2013-09-03 13:15:00,66.4,62.7,30.02,North,0,0.0,0.0,88,0.03,,,0.14,WUHU216HW,2013-09-03 20:15:00,
2013-09-03 13:19:00,66.2,61.9,30.02,North,0,0.0,0.0,86,0.02,,,0.14,WUHU216HW,2013-09-03 20:19:00,
2013-09-03 13:24:00,66.4,62.4,30.02,North,0,0.0,0.0,87,0.01,,,0.14,WUHU216HW,2013-09-03 20:24:00,
2013-09-03 13:30:00,67.0,62.3,30.02,North,0,0.0,0.0,85,0.01,,,0.14,WUHU216HW,2013-09-03 20:30:00,
2013-09-03 13:35:00,67.3,62.3,30.02,North,0,0.0,0.0,84,0.00,,,0.14,WUHU216HW,2013-09-03 20:35:00,
2013-09-03 13:40:00,68.0,63.4,30.02,North,0,0.0,0.0,85,0.00,,,0.14,WUHU216HW,2013-09-03 20:40:00,
2013-09-03 13:44:00,68.4,63.4,30.02,North,0,0.0,0.0,84,0.00,,,0.14,WUHU216HW,2013-09-03 20:44:00,
2013-09-03 13:50:00,68.2,63.2,30.02,North,0,0.0,0.0,84,0.00,,,0.14,WUHU216HW,2013-09-03 20:50:00,
2013-09-03 13:55:00,68.2,63.2,30.03,North,0,0.0,0.0,84,0.00,,,0.14,WUHU216HW,2013-09-03 20:55:00,
2013-09-03 14:00:00,68.4,63.1,30.03,North,0,0.0,0.0,83,0.00,,,0.14,WUHU216HW,2013-09-03 21:00:00,
2013-09-03 14:05:00,67.9,62.6,30.03,North,0,0.0,0.0,83,0.00,,,0.14,WUHU216HW,2013-09-03 21:05:00,
2013-09-03 14:10:00,67.9,62.8,30.03,North,0,0.0,0.0,84,0.00,,,0.14,WUHU216HW,2013-09-03 21:10:00,
2013-09-03 14:15:00,68.2,63.2,30.03,North,0,0.0,0.0,84,0.00,,,0.14,WUHU216HW,2013-09-03 21:15:00,
2013-09-03 14:20:00,68.2,63.2,30.03,North,0,0.0,0.0,84,0.00,,,0.14,WUHU216HW,2013-09-03 21:20:00,
2013-09-03 14:25:00,68.0,62.7,30.03,North,0,0.0,0.0,83,0.00,,,0.14,WUHU216HW,2013-09-03 21:25:00,
2013-09-03 14:30:00,68.2,62.9,30.03,North,0,0.0,0.0,83,0.00,,,0.14,WUHU216HW,2013-09-03 21:30:00,
2013-09-03 14:35:00,68.2,63.2,30.02,North,0,0.0,0.0,84,0.00,,,0.14,WUHU216HW,2013-09-03 21:35:00,
2013-09-03 14:41:00,68.6,63.2,30.03,North,0,0.0,0.0,83,0.00,,,0.14,WUHU216HW,2013-09-03 21:41:00,
2013-09-03 14:46:00,68.8,63.4,30.03,North,0,0.0,0.0,83,0.00,,,0.14,WUHU216HW,2013-09-03 21:46:00,
2013-09-03 14:51:00,69.1,63.4,30.03,North,0,0.0,0.0,82,0.00,,,0.14,WUHU216HW,2013-09-03 21:51:00,
2013-09-03 14:56:00,69.5,63.4,30.03,North,0,0.0,0.0,81,0.00,,,0.14,WUHU216HW,2013-09-03 21:56:00,
2013-09-03 15:01:00,69.3,63.2,30.03,North,0,0.0,0.0,81,0.00,,,0.14,WUHU216HW,2013-09-03 22:01:00,
2013-09-03 15:06:00,69.1,63.1,30.03,North,0,0.0,0.0,81,0.00,,,0.14,WUHU216HW,2013-09-03 22:06:00,
2013-09-03 15:11:00,69.1,63.1,30.03,North,0,0.0,0.0,81,0.00,,,0.14,WUHU216HW,2013-09-03 22:11:00,
2013-09-03 15:16:00,69.3,63.5,30.02,North,0,0.0,0.0,82,0.00,,,0.14,WUHU216HW,2013-09-03 22:16:00,
2013-09-03 15:23:00,69.5,63.4,30.02,North,0,0.0,0.0,81,0.00,,,0.14,WUHU216HW,2013-09-03 22:23:00,
2013-09-03 15:28:00,69.7,63.6,30.02,North,0,0.0,0.0,81,0.00,,,0.14,WUHU216HW,2013-09-03 22:28:00,
2013-09-03 15:33:00,69.7,63.2,30.03,North,0,0.0,0.0,80,0.00,,,0.14,WUHU216HW,2013-09-03 22:33:00,
2013-09-03 15:38:00,69.7,62.8,30.02,North,0,0.0,0.0,79,0.00,,,0.14,WUHU216HW,2013-09-03 22:38:00,
2013-09-03 15:43:00,69.8,63.0,30.02,North,0,0.0,0.0,79,0.00,,,0.14,WUHU216HW,2013-09-03 22:43:00,
2013-09-03 15:48:00,70.0,63.2,30.02,North,0,0.0,0.0,79,0.00,,,0.14,WUHU216HW,2013-09-03 22:48:00,
2013-09-03 15:53:00,70.4,62.7,30.02,North,0,0.0,0.0,77,0.00,,,0.14,WUHU216HW,2013-09-03 22:53:00,
2013-09-03 15:58:00,70.4,62.4,30.03,North,0,0.0,0.0,76,0.00,,,0.14,WUHU216HW,2013-09-03 22:58:00,
2013-09-03 16:03:00,70.7,62.4,30.03,North,0,0.0,0.0,75,0.00,,,0.14,WUHU216HW,2013-09-03 23:03:00,
2013-09-03 16:08:00,71.3,62.6,30.02,North,0,0.0,0.0,74,0.00,,,0.14,WUHU216HW,2013-09-03 23:08:00,
2013-09-03 16:13:00,71.6,61.4,30.03,North,0,0.0,0.0,70,0.00,,,0.14,WUHU216HW,2013-09-03 23:13:00,
2013-09-03 16:18:00,71.1,60.4,30.03,North,0,0.0,0.0,69,0.00,,,0.14,WUHU216HW,2013-09-03 23:18:00,
2013-09-03 16:23:00,70.9,60.2,30.03,North,0,0.0,0.0,69,0.00,,,0.14,WUHU216HW,2013-09-03 23:23:00,
2013-09-03 16:28:00,71.1,60.0,30.03,North,0,0.0,0.0,68,0.00,,,0.14,WUHU216HW,2013-09-03 23:28:00,
2013-09-03 16:33:00,71.1,60.0,30.03,North,0,0.0,0.0,68,0.00,,,0.14,WUHU216HW,2013-09-03 23:33:00,
2013-09-03 16:38:00,71.3,60.6,30.03,North,0,0.0,0.0,69,0.00,,,0.14,WUHU216HW,2013-09-03 23:38:00,
2013-09-03 16:43:00,70.9,60.7,30.03,North,0,0.0,0.0,70,0.00,,,0.14,WUHU216HW,2013-09-03 23:43:00,
2013-09-03 16:48:00,71.1,60.8,30.03,North,0,0.0,0.0,70,0.00,,,0.14,WUHU216HW,2013-09-03 23:48:00,
2013-09-03 16:53:00,71.3,61.0,30.03,North,0,0.0,0.0,70,0.00,,,0.14,WUHU216HW,2013-09-03 23:53:00,
2013-09-03 16:58:00,71.5,61.2,30.03,North,0,0.0,0.0,70,0.00,,,0.14,WUHU216HW,2013-09-03 23:58:00,
2013-09-03 17:03:00,71.5,61.2,30.03,North,0,0.0,0.0,70,0.00,,,0.14,WUHU216HW,2013-09-04 00:03:00,
2013-09-03 17:04:00,71.6,61.4,30.03,North,0,0.0,0.0,70,0.00,,,0.14,WUHU216HW,2013-09-04 00:04:00,
2013-09-03 17:09:00,71.3,60.6,30.03,North,0,0.0,0.0,69,0.00,,,0.14,WUHU216HW,2013-09-04 00:09:00,
2013-09-03 17:14:00,71.6,60.5,30.02,North,0,0.0,0.0,68,0.00,,,0.14,WUHU216HW,2013-09-04 00:14:00,
2013-09-03 17:19:00,71.6,60.1,30.02,North,0,0.0,0.0,67,0.00,,,0.14,WUHU216HW,2013-09-04 00:19:00,
2013-09-03 17:24:00,71.8,60.3,30.02,North,0,0.0,0.0,67,0.00,,,0.14,WUHU216HW,2013-09-04 00:24:00,
2013-09-03 17:29:00,71.8,60.3,30.02,North,0,0.0,0.0,67,0.00,,,0.14,WUHU216HW,2013-09-04 00:29:00,
2013-09-03 17:34:00,71.8,60.3,30.02,North,0,0.0,0.0,67,0.00,,,0.14,WUHU216HW,2013-09-04 00:34:00,
2013-09-03 17:40:00,72.0,60.4,30.03,North,0,0.0,0.0,67,0.00,,,0.14,WUHU216HW,2013-09-04 00:40:00,
2013-09-03 17:45:00,72.4,60.8,30.02,North,0,0.0,0.0,67,0.00,,,0.14,WUHU216HW,2013-09-04 00:45:00,
2013-09-03 17:50:00,73.4,60.5,30.03,North,0,0.0,0.0,64,0.00,,,0.14,WUHU216HW,2013-09-04 00:50:00,
2013-09-03 17:55:00,75.6,62.6,30.03,North,0,0.0,0.0,64,0.00,,,0.14,WUHU216HW,2013-09-04 00:55:00,
2013-09-03 18:00:00,76.9,60.0,30.03,North,0,0.0,0.0,56,0.00,,,0.14,WUHU216HW,2013-09-04 01:00:00,
2013-09-03 18:05:00,77.2,59.8,30.03,North,0,0.0,0.0,55,0.00,,,0.14,WUHU216HW,2013-09-04 01:05:00,
2013-09-03 18:10:00,77.0,61.1,30.02,North,0,0.0,0.0,58,0.00,,,0.14,WUHU216HW,2013-09-04 01:10:00,
2013-09-03 18:15:00,78.3,61.8,30.03,North,0,0.0,0.0,57,0.00,,,0.14,WUHU216HW,2013-09-04 01:15:00,
2013-09-03 18:20:00,78.5,60.9,30.02,North,0,0.0,0.0,55,0.00,,,0.14,WUHU216HW,2013-09-04 01:20:00,
2013-09-03 18:25:00,78.5,60.0,30.02,North,0,0.0,0.0,53,0.00,,,0.14,WUHU216HW,2013-09-04 01:25:00,
2013-09-03 18:30:00,78.1,60.6,30.02,North,0,0.0,0.0,55,0.00,,,0.14,WUHU216HW,2013-09-04 01:30:00,
2013-09-03 18:35:00,77.8,60.8,30.02,North,0,0.0,0.0,56,0.00,,,0.14,WUHU216HW,2013-09-04 01:35:00,
2013-09-03 18:40:00,76.3,58.4,30.02,North,0,0.0,0.0,54,0.00,,,0.14,WUHU216HW,2013-09-04 01:40:00,
2013-09-03 18:45:00,74.7,59.0,30.02,North,0,0.0,0.0,58,0.00,,,0.14,WUHU216HW,2013-09-04 01:45:00,
2013-09-03 18:50:00,73.8,59.0,30.02,North,0,0.0,0.0,60,0.00,,,0.14,WUHU216HW,2013-09-04 01:50:00,
2013-09-03 18:55:00,73.1,58.8,30.02,North,0,0.0,0.0,61,0.00,,,0.14,WUHU216HW,2013-09-04 01:55:00,
2013-09-03 19:00:00,72.4,58.6,30.02,North,0,0.0,0.0,62,0.00,,,0.14,WUHU216HW,2013-09-04 02:00:00,
2013-09-03 19:05:00,72.0,58.7,30.02,North,0,0.0,0.0,63,0.00,,,0.14,WUHU216HW,2013-09-04 02:05:00,
2013-09-03 19:10:00,71.6,58.8,30.03,North,0,0.0,0.0,64,0.00,,,0.14,WUHU216HW,2013-09-04 02:10:00,
2013-09-03 19:15:00,71.5,59.0,30.03,North,0,0.0,0.0,65,0.00,,,0.14,WUHU216HW,2013-09-04 02:15:00,
2013-09-03 19:20:00,71.1,58.3,30.03,North,0,0.0,0.0,64,0.00,,,0.14,WUHU216HW,2013-09-04 02:20:00,
2013-09-03 19:25:00,70.7,58.3,30.03,North,0,0.0,0.0,65,0.00,,,0.14,WUHU216HW,2013-09-04 02:25:00,
2013-09-03 19:30:00,70.0,58.2,30.03,North,0,0.0,0.0,66,0.00,,,0.14,WUHU216HW,2013-09-04 02:30:00,
2013-09-03 19:35:00,69.1,57.7,30.03,North,0,0.0,0.0,67,0.00,,,0.14,WUHU216HW,2013-09-04 02:35:00,
2013-09-03 19:40:00,68.4,57.4,30.03,North,0,0.0,0.0,68,0.00,,,0.14,WUHU216HW,2013-09-04 02:40:00,
2013-09-03 19:45:00,67.9,57.3,30.03,North,0,0.0,0.0,69,0.00,,,0.14,WUHU216HW,2013-09-04 02:45:00,
2013-09-03 19:50:00,67.1,57.4,30.03,North,0,0.0,0.0,71,0.00,,,0.14,WUHU216HW,2013-09-04 02:50:00,
2013-09-03 19:55:00,66.6,57.2,30.03,North,0,0.0,0.0,72,0.00,,,0.14,WUHU216HW,2013-09-04 02:55:00,
2013-09-03 20:00:00,66.1,57.2,30.03,North,0,0.0,0.0,73,0.00,,,0.14,WUHU216HW,2013-09-04 03:00:00,
2013-09-03 20:05:00,65.7,57.2,30.02,North,0,0.0,0.0,74,0.00,,,0.14,WUHU216HW,2013-09-04 03:05:00,
2013-09-03 20:10:00,65.2,56.7,30.03,North,0,0.0,0.0,74,0.00,,,0.14,WUHU216HW,2013-09-04 03:10:00,
2013-09-03 20:15:00,65.0,56.9,30.03,North,0,0.0,0.0,75,0.00,,,0.14,WUHU216HW,2013-09-04 03:15:00,
2013-09-03 20:20:00,64.6,57.3,30.03,North,0,0.0,0.0,77,0.00,,,0.14,WUHU216HW,2013-09-04 03:20:00,
2013-09-03 20:25:00,64.3,56.5,30.03,North,0,0.0,0.0,76,0.00,,,0.14,WUHU216HW,2013-09-04 03:25:00,
2013-09-03 20:30:00,64.1,56.7,30.03,North,0,0.0,0.0,77,0.00,,,0.14,WUHU216HW,2013-09-04 03:30:00,
2013-09-03 20:35:00,63.7,56.7,30.03,North,0,0.0,0.0,78,0.00,,,0.14,WUHU216HW,2013-09-04 03:35:00,
2013-09-03 20:40:00,63.5,56.5,30.03,North,0,0.0,0.0,78,0.00,,,0.14,WUHU216HW,2013-09-04 03:40:00,
2013-09-03 20:45:00,63.4,56.3,30.03,North,0,0.0,0.0,78,0.00,,,0.14,WUHU216HW,2013-09-04 03:45:00,
2013-09-03 20:50:00,63.0,56.3,30.03,North,0,0.0,0.0,79,0.00,,,0.14,WUHU216HW,2013-09-04 03:50:00,
2013-09-03 20:55:00,62.8,56.2,30.03,North,0,0.0,0.0,79,0.00,,,0.14,WUHU216HW,2013-09-04 03:55:00,
2013-09-03 21:00:00,62.5,56.2,30.04,North,0,0.0,0.0,80,0.00,,,0.14,WUHU216HW,2013-09-04 04:00:00,
2013-09-03 21:01:00,62.6,56.3,30.04,North,0,0.0,0.0,80,0.00,,,0.14,WUHU216HW,2013-09-04 04:01:00,
2013-09-03 21:06:00,62.3,56.3,30.04,North,0,0.0,0.0,81,0.00,,,0.14,WUHU216HW,2013-09-04 04:06:00,
2013-09-03 21:11:00,62.1,55.9,30.04,North,0,0.0,0.0,80,0.00,,,0.14,WUHU216HW,2013-09-04 04:11:00,
2013-09-03 21:16:00,61.9,56.1,30.04,North,0,0.0,0.0,81,0.00,,,0.14,WUHU216HW,2013-09-04 04:16:00,
2013-09-03 21:22:00,61.7,55.9,30.04,North,0,0.0,0.0,81,0.00,,,0.14,WUHU216HW,2013-09-04 04:22:00,
2013-09-03 21:27:00,61.6,55.7,30.04,North,0,0.0,0.0,81,0.00,,,0.14,WUHU216HW,2013-09-04 04:27:00,
2013-09-03 21:32:00,61.6,55.7,30.04,North,0,0.0,0.0,81,0.00,,,0.14,WUHU216HW,2013-09-04 04:32:00,
2013-09-03 21:37:00,61.4,55.9,30.04,North,0,0.0,0.0,82,0.00,,,0.14,WUHU216HW,2013-09-04 04:37:00,
2013-09-03 21:42:00,61.2,55.7,30.04,North,0,0.0,0.0,82,0.00,,,0.14,WUHU216HW,2013-09-04 04:42:00,
2013-09-03 21:47:00,61.2,56.1,30.04,North,0,0.0,0.0,83,0.00,,,0.14,WUHU216HW,2013-09-04 04:47:00,
2013-09-03 21:53:00,61.0,56.2,30.04,North,0,0.0,0.0,84,0.00,,,0.14,WUHU216HW,2013-09-04 04:53:00,
2013-09-03 21:59:00,61.0,56.2,30.05,North,0,0.0,0.0,84,0.00,,,0.14,WUHU216HW,2013-09-04 04:59:00,
2013-09-03 22:04:00,60.8,56.0,30.05,North,0,0.0,0.0,84,0.00,,,0.14,WUHU216HW,2013-09-04 05:04:00,
2013-09-03 22:09:00,60.8,56.0,30.05,North,0,0.0,0.0,84,0.00,,,0.14,WUHU216HW,2013-09-04 05:09:00,
2013-09-03 22:14:00,60.5,55.6,30.06,North,0,0.0,0.0,84,0.00,,,0.14,WUHU216HW,2013-09-04 05:14:00,
2013-09-03 22:19:00,60.5,56.0,30.06,North,0,0.0,0.0,85,0.00,,,0.14,WUHU216HW,2013-09-04 05:19:00,
2013-09-03 22:24:00,60.7,56.5,30.05,North,0,0.0,0.0,86,0.00,,,0.14,WUHU216HW,2013-09-04 05:24:00,
2013-09-03 22:29:00,60.7,56.8,30.05,North,0,0.0,0.0,87,0.00,,,0.14,WUHU216HW,2013-09-04 05:29:00,
2013-09-03 22:34:00,60.7,56.8,30.05,North,0,0.0,0.0,87,0.00,,,0.14,WUHU216HW,2013-09-04 05:34:00,
2013-09-03 22:39:00,60.5,56.4,30.05,North,0,0.0,0.0,86,0.00,,,0.14,WUHU216HW,2013-09-04 05:39:00,
2013-09-03 22:44:00,60.1,56.3,30.05,North,0,0.0,0.0,87,0.00,,,0.14,WUHU216HW,2013-09-04 05:44:00,
2013-09-03 22:49:00,60.1,56.3,30.05,North,0,0.0,0.0,87,0.00,,,0.14,WUHU216HW,2013-09-04 05:49:00,
2013-09-03 22:54:00,59.9,56.1,30.05,North,0,0.0,0.0,87,0.00,,,0.14,WUHU216HW,2013-09-04 05:54:00,
2013-09-03 22:59:00,59.8,55.9,30.05,North,0,0.0,0.0,87,0.00,,,0.14,WUHU216HW,2013-09-04 05:59:00,
2013-09-03 23:04:00,59.8,55.9,30.05,North,0,0.0,0.0,87,0.00,,,0.14,WUHU216HW,2013-09-04 06:04:00,
2013-09-03 23:09:00,59.8,55.9,30.05,North,0,0.0,0.0,87,0.00,,,0.14,WUHU216HW,2013-09-04 06:09:00,
2013-09-03 23:14:00,59.6,56.1,30.05,North,0,0.0,0.0,88,0.00,,,0.14,WUHU216HW,2013-09-04 06:14:00,
2013-09-03 23:19:00,59.6,56.1,30.05,North,0,0.0,0.0,88,0.00,,,0.14,WUHU216HW,2013-09-04 06:19:00,
2013-09-03 23:24:00,59.4,55.9,30.05,North,0,0.0,0.0,88,0.00,,,0.14,WUHU216HW,2013-09-04 06:24:00,
2013-09-03 23:29:00,59.4,55.9,30.06,North,0,0.0,0.0,88,0.00,,,0.14,WUHU216HW,2013-09-04 06:29:00,
2013-09-03 23:34:00,59.2,56.0,30.06,North,0,0.0,0.0,89,0.00,,,0.14,WUHU216HW,2013-09-04 06:34:00,
2013-09-03 23:39:00,59.0,55.8,30.06,North,0,0.0,0.0,89,0.00,,,0.14,WUHU216HW,2013-09-04 06:39:00,
2013-09-03 23:44:00,59.0,56.2,30.05,North,0,0.0,0.0,90,0.00,,,0.14,WUHU216HW,2013-09-04 06:44:00,
2013-09-03 23:49:00,58.9,55.6,30.05,North,0,0.0,0.0,89,0.00,,,0.14,WUHU216HW,2013-09-04 06:49:00,
2013-09-03 23:54:00,58.7,55.4,30.05,North,0,0.0,0.0,89,0.00,,,0.14,WUHU216HW,2013-09-04 06:54:00,
2013-09-03 23:59:00,58.7,55.4,30.05,North,0,0.0,0.0,89,0.00,,,0.14,WUHU216HW,2013-09-04 06:59:00,